Time;durP1;ratioP1;P1;durP2;ratioP2;P2;SDS_P1;SDS_P2;PMS_P1;PMS_P2;Temp;Humidity;BMP_temperature;BMP_pressure;BME280_temperature;BME280_humidity;BME280_pressure;Samples;Min_cycle;Max_cycle;Signal;HPM_P1;HPM_P2
2022/05/01 00:00:50;;;;;;;9.60;8.90;;;14.70;33.90;;;;;;10347865;28;20260;-74
2022/05/01 00:05:56;;;;;;;10.30;9.40;;;14.70;33.50;;;;;;10352396;28;20327;-74
2022/05/01 00:11:01;;;;;;;8.50;7.80;;;14.70;33.60;;;;;;10359202;28;20226;-75
2022/05/01 00:16:15;;;;;;;9.27;8.47;;;14.80;34.00;;;;;;10352023;28;20226;-75
2022/05/01 00:21:18;;;;;;;10.00;9.20;;;14.80;33.60;;;;;;10348386;28;20229;-78
2022/05/01 00:26:23;;;;;;;8.80;8.20;;;14.80;33.60;;;;;;10350350;28;20242;-74
2022/05/01 00:31:26;;;;;;;8.83;8.10;;;14.90;34.00;;;;;;10351186;28;20235;-77
2022/05/01 00:36:30;;;;;;;9.57;8.87;;;14.90;33.60;;;;;;10344529;28;20714;-74
2022/05/01 00:41:36;;;;;;;9.20;8.53;;;14.90;33.70;;;;;;10345817;28;20711;-74
2022/05/01 00:46:42;;;;;;;10.10;9.30;;;14.90;34.00;;;;;;10345172;28;20507;-76
2022/05/01 00:51:48;;;;;;;10.30;9.50;;;14.90;33.90;;;;;;10358736;28;20597;-78
2022/05/01 00:56:54;;;;;;;10.33;9.53;;;14.80;34.00;;;;;;10351378;28;20373;-75
2022/05/01 01:01:57;;;;;;;10.37;9.57;;;14.70;34.40;;;;;;10353407;28;20302;-75
2022/05/01 01:07:02;;;;;;;10.50;9.60;;;14.70;34.00;;;;;;10350551;28;20301;-78
2022/05/01 01:17:43;;;;;;;10.97;9.97;;;14.60;35.60;;;;;;10352847;28;20230;-75
2022/05/01 01:22:49;;;;;;;11.50;10.50;;;14.60;34.40;;;;;;10342942;28;20226;-77
2022/05/01 01:27:54;;;;;;;10.20;9.37;;;14.50;35.00;;;;;;10344810;28;20234;-78
2022/05/01 01:32:58;;;;;;;11.37;10.47;;;14.50;34.60;;;;;;10343079;28;20309;-73
2022/05/01 01:38:03;;;;;;;12.03;11.03;;;14.50;34.40;;;;;;10348636;28;20873;-78
2022/05/01 01:43:07;;;;;;;11.73;10.83;;;14.50;35.00;;;;;;10348977;28;20788;-76
2022/05/01 01:48:17;;;;;;;10.70;9.90;;;14.40;34.60;;;;;;10342918;28;20235;-76
2022/05/01 01:53:22;;;;;;;14.27;12.97;;;14.40;35.30;;;;;;10339751;28;20236;-76
2022/05/01 01:58:26;;;;;;;12.57;11.57;;;14.40;35.10;;;;;;10337959;28;20249;-77
2022/05/01 02:03:29;;;;;;;13.10;12.03;;;14.40;34.70;;;;;;10347439;28;20225;-77
2022/05/01 02:08:36;;;;;;;11.13;10.30;;;14.40;34.80;;;;;;10349171;28;20245;-76
2022/05/01 02:13:39;;;;;;;12.83;11.73;;;14.40;35.00;;;;;;10343714;28;20242;-75
2022/05/01 02:18:43;;;;;;;12.77;11.57;;;14.40;34.80;;;;;;10358063;28;20234;-75
2022/05/01 02:23:47;;;;;;;12.57;11.57;;;14.50;35.00;;;;;;10345284;28;20233;-73
2022/05/01 02:28:54;;;;;;;13.67;12.47;;;14.50;35.40;;;;;;10337114;28;20235;-76
2022/05/01 02:34:10;;;;;;;13.20;12.10;;;14.40;34.90;;;;;;10341434;28;20252;-73
2022/05/01 02:39:16;;;;;;;13.17;12.07;;;14.40;35.40;;;;;;10344275;28;20218;-76
2022/05/01 02:44:19;;;;;;;14.33;13.13;;;14.40;35.60;;;;;;10340734;28;20301;-76
2022/05/01 02:49:22;;;;;;;13.87;12.67;;;14.40;35.10;;;;;;10341556;28;20244;-75
2022/05/01 02:54:29;;;;;;;13.77;12.67;;;14.40;35.10;;;;;;10343167;28;20241;-77
2022/05/01 02:59:32;;;;;;;15.17;13.87;;;14.30;35.60;;;;;;10345407;28;20245;-75
2022/05/01 03:04:40;;;;;;;14.90;13.70;;;14.40;35.40;;;;;;10353161;28;20241;-74
2022/05/01 03:09:44;;;;;;;15.80;14.50;;;14.40;36.10;;;;;;10347328;28;20254;-77
2022/05/01 03:14:49;;;;;;;14.70;13.50;;;14.40;35.90;;;;;;10344848;28;20245;-77
2022/05/01 03:25:14;;;;;;;14.77;13.57;;;14.40;35.40;;;;;;10352236;28;20856;-77
2022/05/01 03:30:17;;;;;;;16.43;14.93;;;14.40;35.90;;;;;;10339058;28;20233;-77
2022/05/01 03:35:24;;;;;;;15.60;14.30;;;14.30;35.40;;;;;;10346604;28;20313;-77
2022/05/01 03:40:29;;;;;;;16.00;14.60;;;14.30;36.10;;;;;;10358016;28;20259;-77
2022/05/01 03:45:35;;;;;;;13.97;12.87;;;14.20;36.10;;;;;;10356533;28;20226;-77
2022/05/01 03:50:38;;;;;;;15.50;14.17;;;14.30;35.90;;;;;;10359943;28;20264;-77
2022/05/01 03:55:42;;;;;;;15.37;14.07;;;14.20;35.80;;;;;;10350196;28;20222;-76
2022/05/01 04:00:47;;;;;;;16.63;15.23;;;14.20;36.20;;;;;;10353386;28;20315;-77
2022/05/01 04:05:51;;;;;;;17.40;15.87;;;14.30;36.00;;;;;;10355352;28;20257;-76
2022/05/01 04:10:55;;;;;;;13.43;12.23;;;14.30;35.90;;;;;;10343878;28;20806;-73
2022/05/01 04:15:59;;;;;;;16.73;15.17;;;14.30;36.20;;;;;;10353923;28;20694;-74
2022/05/01 04:21:02;;;;;;;17.37;15.87;;;14.30;35.90;;;;;;10355345;28;20337;-78
2022/05/01 04:26:07;;;;;;;16.90;15.47;;;14.20;35.90;;;;;;10358704;28;20730;-79
2022/05/01 04:31:10;;;;;;;14.93;13.53;;;14.20;36.40;;;;;;10353877;28;20246;-76
2022/05/01 04:36:14;;;;;;;17.33;15.83;;;14.20;36.00;;;;;;10344466;28;20230;-76
2022/05/01 04:41:18;;;;;;;18.37;16.83;;;14.20;36.10;;;;;;10350054;28;20226;-76
2022/05/01 04:46:21;;;;;;;16.60;15.20;;;14.10;36.70;;;;;;10348148;28;20349;-76
2022/05/01 04:51:27;;;;;;;16.93;15.53;;;14.10;36.30;;;;;;10345313;28;20226;-72
2022/05/01 05:01:52;;;;;;;16.87;15.20;;;14.10;36.90;;;;;;10345478;28;20222;-72
2022/05/01 05:06:56;;;;;;;17.33;15.87;;;14.00;36.50;;;;;;10339864;28;21064;-72
2022/05/01 05:12:03;;;;;;;19.03;17.30;;;14.00;36.70;;;;;;10346628;28;20230;-72
2022/05/01 05:17:10;;;;;;;18.67;17.07;;;14.00;37.30;;;;;;10344289;28;20233;-73
2022/05/01 05:22:13;;;;;;;18.30;16.70;;;14.00;37.40;;;;;;10345295;28;20604;-72
2022/05/01 05:27:20;;;;;;;16.53;15.10;;;14.00;36.80;;;;;;10348490;28;20318;-72
2022/05/01 05:32:35;;;;;;;19.50;17.70;;;14.00;37.40;;;;;;10342342;28;20249;-72
2022/05/01 05:37:44;;;;;;;18.90;17.30;;;14.00;38.10;;;;;;10341307;28;20229;-72
2022/05/01 05:42:48;;;;;;;17.90;16.20;;;14.00;37.00;;;;;;10342895;28;20229;-72
2022/05/01 05:47:54;;;;;;;20.33;18.43;;;14.00;37.40;;;;;;10341367;28;20383;-76
2022/05/01 05:52:58;;;;;;;19.23;17.47;;;14.00;37.00;;;;;;10341971;28;20236;-75
2022/05/01 05:58:04;;;;;;;19.37;17.57;;;13.90;37.00;;;;;;10336654;28;20223;-77
2022/05/01 06:03:07;;;;;;;19.40;17.70;;;14.00;37.40;;;;;;10335590;28;20227;-76
2022/05/01 06:08:10;;;;;;;17.43;15.83;;;14.10;37.20;;;;;;10348081;28;20302;-76
2022/05/01 06:13:15;;;;;;;19.07;17.47;;;14.10;37.20;;;;;;10341609;28;20906;-77
2022/05/01 06:18:18;;;;;;;20.93;19.07;;;14.10;37.50;;;;;;10353833;28;20228;-77
2022/05/01 06:23:22;;;;;;;18.70;17.00;;;14.10;37.30;;;;;;10350081;28;20235;-77
2022/05/01 06:28:26;;;;;;;19.53;17.80;;;14.20;37.20;;;;;;10355557;28;20230;-77
2022/05/01 06:33:31;;;;;;;19.20;17.33;;;14.10;37.60;;;;;;10349267;28;20318;-78
2022/05/01 06:38:34;;;;;;;20.67;18.77;;;14.10;37.50;;;;;;10354885;28;20746;-79
2022/05/01 06:43:39;;;;;;;20.67;18.77;;;14.10;37.50;;;;;;10354778;28;20562;-78
2022/05/01 06:48:45;;;;;;;18.23;16.63;;;14.10;38.00;;;;;;10352191;28;20226;-78
2022/05/01 06:53:48;;;;;;;21.47;19.50;;;14.10;38.20;;;;;;10355095;28;20598;-78
2022/05/01 06:58:53;;;;;;;22.90;20.80;;;14.10;37.50;;;;;;10363602;28;20820;-78
2022/05/01 07:03:56;;;;;;;21.60;19.70;;;14.10;38.40;;;;;;10355464;28;20222;-79
2022/05/01 07:09:00;;;;;;;23.30;21.10;;;14.10;37.90;;;;;;10354419;28;20258;-76
2022/05/01 07:14:06;;;;;;;21.73;19.63;;;14.00;38.10;;;;;;10352229;28;20679;-74
2022/05/01 07:19:12;;;;;;;20.70;18.90;;;13.90;38.90;;;;;;10346754;28;20272;-79
2022/05/01 07:24:16;;;;;;;20.03;18.13;;;13.90;38.30;;;;;;10357854;28;20222;-80
2022/05/01 07:29:21;;;;;;;20.83;19.00;;;13.90;38.30;;;;;;10351289;28;20245;-78
2022/05/01 07:34:24;;;;;;;20.23;18.43;;;14.00;39.00;;;;;;10351561;28;20783;-75
2022/05/01 07:39:28;;;;;;;22.23;20.23;;;14.00;38.60;;;;;;10338795;28;20227;-72
2022/05/01 07:44:33;;;;;;;22.17;20.17;;;14.00;38.60;;;;;;10347912;28;20229;-72
2022/05/01 07:49:36;;;;;;;22.20;20.13;;;14.10;39.10;;;;;;10348643;28;20222;-78
2022/05/01 07:54:39;;;;;;;23.10;20.90;;;14.10;38.60;;;;;;10346268;28;20222;-77
2022/05/01 07:59:44;;;;;;;23.17;21.07;;;14.10;38.70;;;;;;10348692;28;21149;-78
2022/05/01 08:04:48;;;;;;;23.93;21.73;;;14.10;39.10;;;;;;10351678;28;20236;-78
2022/05/01 08:09:51;;;;;;;23.73;21.57;;;14.20;39.00;;;;;;10347459;28;20254;-78
2022/05/01 08:14:56;;;;;;;22.13;20.20;;;14.20;38.90;;;;;;10351141;28;20584;-74
2022/05/01 08:25:21;;;;;;;21.87;19.97;;;14.20;38.90;;;;;;10344084;28;20242;-78
2022/05/01 08:30:47;;;;;;;24.20;22.10;;;14.30;38.90;;;;;;10350603;28;20913;-79
2022/05/01 08:36:05;;;;;;;22.47;20.43;;;14.30;40.30;;;;;;10340333;28;20230;-80
2022/05/01 08:41:10;;;;;;;22.30;20.20;;;14.40;39.60;;;;;;10361434;28;20230;-80
2022/05/01 08:46:46;;;;;;;20.53;18.83;;;14.40;39.10;;;;;;10357040;28;20222;-79
2022/05/01 08:51:52;;;;;;;21.73;19.73;;;14.50;40.20;;;;;;10369450;28;20229;-79
2022/05/01 08:56:56;;;;;;;20.97;18.97;;;14.60;39.00;;;;;;10343977;28;20226;-73
2022/05/01 09:02:01;;;;;;;21.43;19.53;;;14.70;39.10;;;;;;10339791;28;20234;-73
2022/05/01 09:07:05;;;;;;;19.60;17.87;;;14.70;39.30;;;;;;10339234;28;20237;-77
2022/05/01 09:17:31;;;;;;;20.13;18.23;;;14.90;39.10;;;;;;10338096;28;20237;-75
2022/05/01 09:22:50;;;;;;;18.93;17.20;;;14.90;38.90;;;;;;10348414;28;20218;-76
2022/05/01 09:27:57;;;;;;;18.50;17.00;;;15.00;39.70;;;;;;10354669;28;20706;-76
2022/05/01 09:33:03;;;;;;;19.13;17.50;;;15.00;38.70;;;;;;10356445;28;20260;-75
2022/05/01 09:38:17;;;;;;;18.30;16.70;;;15.10;38.80;;;;;;10351424;28;20229;-76
2022/05/01 09:43:36;;;;;;;16.83;15.43;;;15.20;39.40;;;;;;10356628;28;20238;-75
2022/05/01 09:48:43;;;;;;;20.03;18.23;;;15.20;39.20;;;;;;10352446;28;20228;-76
2022/05/01 09:53:47;;;;;;;17.77;16.27;;;15.30;38.70;;;;;;10353370;28;20223;-76
2022/05/01 09:58:58;;;;;;;15.60;14.20;;;15.30;38.30;;;;;;10354871;28;20690;-76
2022/05/01 10:04:03;;;;;;;18.17;16.67;;;15.30;38.00;;;;;;10352245;28;20261;-76
2022/05/01 10:09:07;;;;;;;14.37;13.17;;;15.40;38.50;;;;;;10355741;28;20292;-76
2022/05/01 10:14:10;;;;;;;14.93;13.73;;;15.50;37.80;;;;;;10355635;28;20236;-76
2022/05/01 10:19:17;;;;;;;14.93;13.63;;;15.60;37.90;;;;;;10351375;28;20230;-77
2022/05/01 10:24:23;;;;;;;13.83;12.63;;;15.70;37.70;;;;;;10349959;28;21027;-77
2022/05/01 10:32:20;;;;;;;13.20;12.03;;;15.80;37.30;;;;;;10362777;28;20232;-76
2022/05/01 10:35:29;;;;;;;11.60;10.57;;;16.00;37.10;;;;;;10364630;28;20228;-76
2022/05/01 10:40:56;;;;;;;11.70;10.60;;;16.10;36.20;;;;;;10315427;28;20230;-77
2022/05/01 10:46:36;;;;;;;11.27;10.27;;;16.20;36.30;;;;;;10342206;28;20276;-76
2022/05/01 10:52:17;;;;;;;11.53;10.63;;;16.20;36.10;;;;;;10321836;28;20234;-75
2022/05/01 10:57:21;;;;;;;10.37;9.57;;;16.30;35.70;;;;;;10348949;28;20245;-74
2022/05/01 11:02:35;;;;;;;9.00;8.20;;;16.40;36.20;;;;;;10352590;28;20236;-75
2022/05/01 11:07:41;;;;;;;8.80;8.00;;;16.50;35.00;;;;;;10351873;28;20655;-75
2022/05/01 11:12:44;;;;;;;9.00;8.30;;;16.50;35.20;;;;;;10362505;28;20231;-75
2022/05/01 11:17:57;;;;;;;9.10;8.30;;;16.60;35.40;;;;;;10350533;28;20229;-74
2022/05/01 11:23:35;;;;;;;9.17;8.37;;;16.80;35.00;;;;;;10347808;28;20222;-75
2022/05/01 11:28:53;;;;;;;9.33;8.47;;;16.90;34.50;;;;;;10368165;28;20226;-75
2022/05/01 11:34:44;;;;;;;8.27;7.50;;;17.00;33.90;;;;;;10354649;28;20222;-75
2022/05/01 11:40:17;;;;;;;8.97;8.17;;;17.10;34.00;;;;;;10339726;28;20950;-74
2022/05/01 11:45:23;;;;;;;7.63;6.93;;;17.20;34.10;;;;;;10363396;28;20235;-76
2022/05/01 11:50:26;;;;;;;6.73;6.03;;;17.30;34.10;;;;;;10347862;28;20257;-75
2022/05/01 12:06:24;;;;;;;7.33;6.63;;;17.60;34.40;;;;;;10365466;28;20257;-75
2022/05/01 12:11:31;;;;;;;7.00;6.40;;;17.70;33.70;;;;;;10341307;28;20230;-74
2022/05/01 12:16:35;;;;;;;6.90;6.40;;;17.80;33.00;;;;;;10341064;28;20237;-74
2022/05/01 12:21:38;;;;;;;7.17;6.57;;;17.80;33.30;;;;;;10328988;28;20222;-75
2022/05/01 12:43:50;;;;;;;7.63;6.93;;;18.00;32.70;;;;;;9887148;29;20317;-73
2022/05/01 12:46:23;;;;;;;7.53;6.83;;;18.00;32.30;;;;;;9953073;29;20242;-73
2022/05/01 12:51:40;;;;;;;7.30;6.70;;;18.10;32.40;;;;;;10180254;29;20233;-74
2022/05/01 12:56:44;;;;;;;7.33;6.70;;;18.20;32.20;;;;;;10185074;29;20232;-73
2022/05/01 13:01:47;;;;;;;7.67;6.97;;;18.20;33.00;;;;;;10180662;29;20746;-73
2022/05/01 13:06:52;;;;;;;6.17;5.67;;;18.20;32.70;;;;;;10190625;28;20332;-73
2022/05/01 13:12:00;;;;;;;6.43;5.93;;;18.30;32.10;;;;;;10304490;28;20230;-73
2022/05/01 13:17:12;;;;;;;7.03;6.37;;;18.30;31.40;;;;;;10303657;28;20230;-74
2022/05/01 13:22:17;;;;;;;7.33;6.07;;;18.40;31.40;;;;;;10305317;28;20230;-74
2022/05/01 13:27:22;;;;;;;6.87;6.27;;;18.30;31.80;;;;;;10321935;28;20235;-77
2022/05/01 13:32:25;;;;;;;7.37;6.77;;;18.40;32.00;;;;;;10301882;28;20223;-77
2022/05/01 13:37:33;;;;;;;7.63;6.93;;;18.40;32.00;;;;;;10303820;28;20223;-76
2022/05/01 13:47:59;;;;;;;7.03;6.43;;;18.40;32.00;;;;;;10268787;28;20238;-76
2022/05/01 13:53:06;;;;;;;7.20;6.60;;;18.40;32.20;;;;;;10296900;28;20231;-76
2022/05/01 13:58:09;;;;;;;6.70;6.20;;;18.30;31.80;;;;;;10296749;28;20222;-76
2022/05/01 14:03:21;;;;;;;7.33;6.73;;;18.40;32.30;;;;;;10296226;28;20223;-78
2022/05/01 14:08:26;;;;;;;8.70;6.03;;;18.40;32.30;;;;;;10339996;28;20237;-73
2022/05/01 14:13:29;;;;;;;6.60;6.00;;;18.50;32.60;;;;;;10344325;28;20267;-74
2022/05/01 14:18:35;;;;;;;7.10;6.50;;;18.60;32.30;;;;;;10338665;28;20624;-74
2022/05/01 14:23:40;;;;;;;7.13;6.53;;;18.80;31.90;;;;;;10339785;28;20229;-74
2022/05/01 14:28:44;;;;;;;7.40;6.70;;;18.90;31.80;;;;;;10338098;28;20229;-74
2022/05/01 14:33:54;;;;;;;7.90;7.20;;;18.90;31.80;;;;;;10336758;28;20230;-74
2022/05/01 14:39:04;;;;;;;6.90;6.30;;;18.90;31.00;;;;;;10334250;28;20238;-74
2022/05/01 14:44:08;;;;;;;6.77;6.27;;;18.90;30.60;;;;;;10335484;28;20818;-75
2022/05/01 14:49:42;;;;;;;7.43;6.83;;;18.90;31.60;;;;;;10335654;28;20230;-75
2022/05/01 14:54:49;;;;;;;7.57;6.97;;;18.90;31.60;;;;;;10339620;28;20309;-74
2022/05/01 15:10:40;;;;;;;7.53;6.90;;;18.90;32.30;;;;;;10342170;28;20226;-74
2022/05/01 15:15:57;;;;;;;6.63;6.10;;;18.90;31.30;;;;;;10338134;28;20226;-74
2022/05/01 15:21:06;;;;;;;6.50;5.90;;;18.90;31.70;;;;;;10341957;28;20843;-74
2022/05/01 15:26:13;;;;;;;5.87;5.30;;;18.90;30.80;;;;;;10350701;28;20261;-74
2022/05/01 15:31:17;;;;;;;6.43;5.90;;;18.90;31.80;;;;;;10352085;28;20566;-74
2022/05/01 15:36:24;;;;;;;7.10;6.60;;;18.90;31.30;;;;;;10352819;28;20249;-76
2022/05/01 15:41:38;;;;;;;6.80;6.20;;;19.00;30.70;;;;;;10347802;28;20235;-74
2022/05/01 15:46:46;;;;;;;7.33;6.60;;;19.00;30.10;;;;;;10341915;28;20249;-74
2022/05/01 15:57:13;;;;;;;6.47;5.97;;;19.10;30.70;;;;;;10333462;28;20862;-75
2022/05/01 16:02:21;;;;;;;6.43;5.93;;;19.10;30.30;;;;;;10337206;28;20226;-75
2022/05/01 16:07:31;;;;;;;6.93;6.23;;;19.10;30.00;;;;;;10339645;28;20295;-74
2022/05/01 16:12:42;;;;;;;6.33;5.83;;;19.10;30.10;;;;;;10337074;28;20234;-74
2022/05/01 16:18:10;;;;;;;6.63;6.10;;;19.10;30.00;;;;;;10339441;28;20242;-74
2022/05/01 16:23:24;;;;;;;7.00;6.47;;;19.10;30.00;;;;;;10333501;28;21201;-74
2022/05/01 16:28:37;;;;;;;6.50;6.00;;;19.10;29.90;;;;;;10334475;28;20266;-73
2022/05/01 16:33:47;;;;;;;6.27;5.67;;;19.10;30.20;;;;;;10337653;28;20226;-74
2022/05/01 16:38:52;;;;;;;6.87;6.37;;;19.10;30.20;;;;;;10342050;28;20242;-74
2022/05/01 16:43:57;;;;;;;6.60;6.10;;;19.00;30.00;;;;;;10348399;28;20227;-74
2022/05/01 16:49:01;;;;;;;6.60;6.10;;;19.00;30.00;;;;;;10342512;28;20237;-74
2022/05/01 16:54:07;;;;;;;6.00;5.60;;;18.90;30.20;;;;;;10335915;28;20223;-74
2022/05/01 16:59:12;;;;;;;7.00;6.37;;;18.90;30.60;;;;;;10335957;28;20233;-73
2022/05/01 17:04:28;;;;;;;6.20;5.70;;;18.90;30.40;;;;;;10338747;28;20226;-74
2022/05/01 17:09:39;;;;;;;7.27;6.67;;;18.90;30.20;;;;;;10338884;28;20238;-74
2022/05/01 17:14:55;;;;;;;6.50;6.00;;;18.90;30.40;;;;;;10336043;28;20222;-74
2022/05/01 17:20:06;;;;;;;7.43;6.83;;;18.90;30.20;;;;;;10332528;28;20737;-74
2022/05/01 17:25:11;;;;;;;7.73;7.07;;;18.90;30.30;;;;;;10335422;28;20218;-75
2022/05/01 17:30:17;;;;;;;7.53;6.93;;;18.90;30.50;;;;;;10333050;28;20344;-74
2022/05/01 17:35:23;;;;;;;7.47;6.93;;;18.90;30.30;;;;;;10357004;28;20225;-80
2022/05/01 17:40:26;;;;;;;7.43;6.83;;;18.90;30.30;;;;;;10352107;28;20223;-80
2022/05/01 17:45:33;;;;;;;7.03;6.53;;;18.80;30.40;;;;;;10347419;28;20230;-80
2022/05/01 17:50:37;;;;;;;6.50;6.00;;;18.80;30.20;;;;;;10336314;28;22405;-78
2022/05/01 17:55:45;;;;;;;6.70;6.20;;;18.80;30.50;;;;;;10334264;28;21141;-78
2022/05/01 18:01:03;;;;;;;6.80;6.13;;;18.80;30.60;;;;;;10347521;28;20231;-74
2022/05/01 18:11:39;;;;;;;12.43;11.33;;;18.70;30.50;;;;;;10341555;28;20619;-74
2022/05/01 18:16:54;;;;;;;18.90;16.87;;;18.60;30.10;;;;;;10342643;28;20221;-76
2022/05/01 18:22:10;;;;;;;10.00;8.97;;;18.60;30.50;;;;;;10367205;28;20230;-79
2022/05/01 18:27:21;;;;;;;6.97;6.47;;;18.60;30.50;;;;;;10352092;28;20922;-73
2022/05/01 18:32:44;;;;;;;7.47;6.83;;;18.50;30.50;;;;;;10330196;28;20225;-74
2022/05/01 18:43:55;;;;;;;7.40;6.80;;;18.30;30.50;;;;;;10328648;28;20230;-78
2022/05/01 18:49:00;;;;;;;7.30;6.60;;;18.20;30.40;;;;;;10354571;28;20231;-77
2022/05/01 18:54:09;;;;;;;7.43;6.83;;;18.10;30.60;;;;;;10368306;28;20218;-78
2022/05/01 18:59:18;;;;;;;8.17;7.57;;;17.90;30.60;;;;;;10369637;28;20222;-77
2022/05/01 19:04:22;;;;;;;8.07;7.27;;;17.80;30.80;;;;;;10377976;28;20236;-78
2022/05/01 19:09:35;;;;;;;8.30;7.67;;;17.60;30.70;;;;;;10343435;28;20240;-78
2022/05/01 19:14:59;;;;;;;12.23;11.13;;;17.50;30.80;;;;;;10377031;28;20221;-78
2022/05/01 19:20:13;;;;;;;9.00;8.20;;;17.30;30.80;;;;;;10371978;28;20227;-79
2022/05/01 19:30:55;;;;;;;7.23;6.73;;;17.10;31.10;;;;;;10355422;28;20242;-73
2022/05/01 19:36:28;;;;;;;7.50;6.87;;;17.00;31.20;;;;;;10344646;28;20286;-74
2022/05/01 19:41:39;;;;;;;7.20;6.50;;;16.90;31.30;;;;;;10341340;28;20568;-74
2022/05/01 19:52:37;;;;;;;9.33;8.53;;;16.80;31.30;;;;;;10339744;28;20725;-74
2022/05/01 19:57:49;;;;;;;9.23;8.40;;;16.50;31.40;;;;;;10311319;28;21140;-74
2022/05/01 20:02:54;;;;;;;9.83;8.87;;;16.30;31.30;;;;;;10328148;28;20222;-73
2022/05/01 20:08:04;;;;;;;9.33;8.53;;;16.30;31.70;;;;;;10326940;28;20244;-74
2022/05/01 20:13:09;;;;;;;10.80;9.70;;;16.20;31.50;;;;;;10328208;28;20222;-74
2022/05/01 20:18:18;;;;;;;9.57;8.47;;;16.20;31.50;;;;;;10329602;28;20811;-73
2022/05/01 20:23:35;;;;;;;10.63;9.57;;;16.10;31.80;;;;;;10333633;28;20234;-74
2022/05/01 20:28:58;;;;;;;10.13;9.23;;;16.00;32.00;;;;;;10337010;28;20245;-73
2022/05/01 20:34:22;;;;;;;9.57;8.77;;;15.90;32.00;;;;;;10350522;28;20594;-79
2022/05/01 20:39:33;;;;;;;9.37;8.53;;;15.70;32.90;;;;;;10346831;28;20238;-79
2022/05/01 20:44:50;;;;;;;9.40;8.60;;;15.60;32.70;;;;;;10352171;28;20234;-79
2022/05/01 20:50:04;;;;;;;8.90;8.13;;;15.60;32.60;;;;;;10341474;28;20312;-74
2022/05/01 20:55:13;;;;;;;8.60;7.83;;;15.40;32.50;;;;;;10338933;28;20261;-74
2022/05/01 21:00:17;;;;;;;10.07;9.27;;;15.40;32.50;;;;;;10333055;28;20231;-73
2022/05/01 21:05:21;;;;;;;10.07;9.23;;;15.30;32.40;;;;;;10335741;28;20241;-74
2022/05/01 21:10:40;;;;;;;9.93;9.13;;;15.20;32.30;;;;;;10338438;28;20313;-74
2022/05/01 21:15:45;;;;;;;9.93;9.03;;;15.10;32.90;;;;;;10338053;28;20233;-74
2022/05/01 21:20:48;;;;;;;10.90;10.00;;;15.00;32.40;;;;;;10334557;28;20301;-73
2022/05/01 21:25:53;;;;;;;10.47;9.63;;;14.90;32.70;;;;;;10340312;28;20237;-74
2022/05/01 21:36:20;;;;;;;9.37;8.57;;;14.90;32.90;;;;;;10332724;28;20253;-74
2022/05/01 21:41:24;;;;;;;8.63;7.83;;;14.90;33.40;;;;;;10335744;28;20242;-74
2022/05/01 21:46:28;;;;;;;9.40;8.70;;;14.90;33.30;;;;;;10339402;28;20226;-73
2022/05/01 21:51:31;;;;;;;10.53;9.53;;;14.90;33.30;;;;;;10339397;28;20251;-73
2022/05/01 21:56:36;;;;;;;8.90;8.20;;;14.90;33.30;;;;;;10343042;28;20227;-74
2022/05/01 22:01:40;;;;;;;9.70;8.90;;;14.90;33.40;;;;;;10343366;28;21111;-74
2022/05/01 22:06:44;;;;;;;9.27;8.47;;;14.90;33.30;;;;;;10342733;28;20225;-78
2022/05/01 22:11:49;;;;;;;10.13;9.20;;;14.80;33.40;;;;;;10342167;28;20246;-77
2022/05/01 22:17:08;;;;;;;10.30;9.40;;;14.80;33.80;;;;;;10338808;28;20338;-77
2022/05/01 22:22:13;;;;;;;10.60;9.70;;;14.90;33.80;;;;;;10343894;28;20249;-77
2022/05/01 22:27:18;;;;;;;9.40;8.60;;;14.90;34.00;;;;;;10345096;28;20318;-77
2022/05/01 22:32:21;;;;;;;9.43;8.53;;;14.70;33.80;;;;;;10342574;28;20620;-77
2022/05/01 22:37:30;;;;;;;9.23;8.43;;;14.90;33.80;;;;;;10349425;28;20333;-77
2022/05/01 22:42:35;;;;;;;9.13;8.43;;;14.80;33.90;;;;;;10340253;28;20558;-77
2022/05/01 22:47:40;;;;;;;10.37;9.37;;;14.80;34.30;;;;;;10337443;28;20656;-77
2022/05/01 22:52:43;;;;;;;9.33;8.53;;;14.80;34.10;;;;;;10337818;28;21168;-77
2022/05/01 22:57:50;;;;;;;10.70;9.70;;;14.70;33.90;;;;;;10342341;28;20234;-77
2022/05/01 23:02:54;;;;;;;10.77;9.63;;;14.60;34.80;;;;;;10341246;28;20313;-77
2022/05/01 23:07:57;;;;;;;10.43;9.53;;;14.50;34.40;;;;;;10341184;28;20276;-77
2022/05/01 23:13:02;;;;;;;9.67;8.90;;;14.40;34.50;;;;;;10343447;28;20419;-77
2022/05/01 23:18:06;;;;;;;10.67;9.77;;;14.40;35.00;;;;;;10333607;28;20620;-77
2022/05/01 23:23:09;;;;;;;10.20;9.40;;;14.30;34.60;;;;;;10340253;28;20246;-77
2022/05/01 23:28:15;;;;;;;10.70;9.80;;;14.30;34.90;;;;;;10337797;28;20237;-76
2022/05/01 23:33:20;;;;;;;11.33;10.23;;;14.30;35.40;;;;;;10340059;28;20219;-77
2022/05/01 23:38:24;;;;;;;10.97;10.07;;;14.20;35.20;;;;;;10343958;28;20233;-77
2022/05/01 23:43:29;;;;;;;12.83;11.83;;;14.20;35.00;;;;;;10344562;28;20227;-77
2022/05/01 23:48:33;;;;;;;13.77;12.57;;;14.20;35.50;;;;;;10346234;28;20770;-77
2022/05/01 23:53:39;;;;;;;12.50;11.50;;;14.20;35.40;;;;;;10345742;28;20226;-77
2022/05/01 23:58:44;;;;;;;12.20;11.20;;;14.20;35.20;;;;;;10346434;28;20226;-77
